< Typhoon 201708 2017 Season Typhoon 201710 >
Typhoon 201709 (NESAT)
General InformationTrack Information on Google MapsDetailed Wind InformationForecast History on Google MapsAccess Analytics MapList of All Images || NewsDisaster Info.WeblogTrackbackTyphoon FrontTwiphoonTyphoon Now!Typhoon ImaginationJMA Disaster Info. XMLResourceGoogle EarthGE AnimationAtom FeedGeoJSON
Detalied Best Track (Time Zone = UTC)
Year Month Day Hour Lat. Long. Pressure (hPa) Wind (kt) Class Image Chart
2017 7 25 06 12.8 129.2 1002 0 2 Image Chart
2017 7 25 12 14.0 129.3 1002 0 2 Image Chart
2017 7 25 18 14.5 128.3 1000 35 3 Image Chart
2017 7 26 00 15.5 128.1 996 40 3 Image Chart
2017 7 26 06 16.1 128.0 996 40 3 Image Chart
2017 7 26 12 16.6 127.8 996 40 3 Image Chart
2017 7 26 18 17.1 127.7 994 45 3 Image Chart
2017 7 27 00 17.5 127.6 990 50 4 Image Chart
2017 7 27 06 18.0 127.4 990 50 4 Image Chart
2017 7 27 12 18.6 127.2 990 50 4 Image Chart
2017 7 27 18 19.3 126.7 990 50 4 Image Chart
2017 7 28 00 20.0 125.8 985 55 4 Image Chart
2017 7 28 06 20.6 125.2 975 65 5 Image Chart
2017 7 28 12 21.1 124.4 970 70 5 Image Chart
2017 7 28 18 21.7 123.5 960 80 5 Image Chart
2017 7 29 00 22.5 123.3 960 80 5 Image Chart
2017 7 29 06 23.4 122.8 960 80 5 Image Chart
2017 7 29 09 23.9 122.4 960 80 5 Image Chart
2017 7 29 12 24.6 121.9 960 80 5 Image Chart
2017 7 29 15 25.0 120.8 970 70 5 Image Chart
2017 7 29 18 25.0 120.2 970 70 5 Image Chart
2017 7 30 00 25.8 119.3 985 50 4 Image Chart
2017 7 30 06 26.1 117.9 990 35 3 Image Chart
2017 7 30 12 25.6 117.0 992 0 2 Image Chart
2017 7 30 18 25.0 116.0 992 0 2 Image Chart
Japan Meteorological Agency Best Track Data | Correction Date : 2017-09-19
< Typhoon 201708 2017 Season Typhoon 201710 >

Help